Time;durP1;ratioP1;P1;durP2;ratioP2;P2;SDS_P1;SDS_P2;PMS_P1;PMS_P2;Temp;Humidity;BMP_temperature;BMP_pressure;BME280_temperature;BME280_humidity;BME280_pressure;Samples;Min_cycle;Max_cycle;Signal;HPM_P1;HPM_P2
2022/10/28 00:00:04;;;;;;;9.43;5.18;;;;;;;11.97;100.00;99184.22;4157284;28;20470;-74
2022/10/28 00:02:04;;;;;;;7.10;5.43;;;;;;;11.95;100.00;99192.13;4156361;28;20325;-74
2022/10/28 00:04:05;;;;;;;8.38;4.68;;;;;;;11.87;100.00;99182.06;4158960;28;20029;-74
2022/10/28 00:06:08;;;;;;;11.18;5.20;;;;;;;11.80;100.00;99188.28;4157118;28;20025;-74
2022/10/28 00:08:09;;;;;;;10.65;5.00;;;;;;;11.71;100.00;99182.16;4155296;28;20485;-74
2022/10/28 00:10:10;;;;;;;11.52;5.43;;;;;;;11.70;100.00;99185.31;4155515;28;20044;-74
2022/10/28 00:12:10;;;;;;;7.03;5.05;;;;;;;11.68;100.00;99182.91;4157680;28;20381;-74
2022/10/28 00:14:10;;;;;;;8.50;4.63;;;;;;;11.73;100.00;99184.56;4155190;28;20292;-74
2022/10/28 00:16:17;;;;;;;8.23;4.75;;;;;;;11.73;100.00;99190.09;4156636;28;20373;-74
2022/10/28 00:18:17;;;;;;;8.60;4.65;;;;;;;11.67;100.00;99181.31;4154712;28;20120;-74
2022/10/28 00:20:18;;;;;;;9.73;4.80;;;;;;;11.65;100.00;99183.63;4160869;28;20060;-74
2022/10/28 00:22:18;;;;;;;4.40;3.97;;;;;;;11.61;100.00;99198.59;4154221;28;20042;-74
2022/10/28 00:24:18;;;;;;;10.32;4.47;;;;;;;11.59;100.00;99204.50;4154901;28;20064;-75
2022/10/28 00:26:21;;;;;;;8.57;4.75;;;;;;;11.56;100.00;99202.47;4157269;28;20435;-74
2022/10/28 00:28:22;;;;;;;8.30;4.65;;;;;;;11.57;100.00;99204.06;4157709;28;20080;-75
2022/10/28 00:30:22;;;;;;;8.68;4.85;;;;;;;11.59;100.00;99201.75;4154580;28;20049;-74
2022/10/28 00:32:23;;;;;;;10.57;4.95;;;;;;;11.63;100.00;99201.78;4155500;28;20045;-75
2022/10/28 00:34:23;;;;;;;12.38;5.35;;;;;;;11.67;100.00;99197.94;4158918;28;20040;-74
2022/10/28 00:36:30;;;;;;;9.68;5.00;;;;;;;11.65;100.00;99194.72;4155264;28;20054;-74
2022/10/28 00:38:30;;;;;;;8.43;4.40;;;;;;;11.62;100.00;99192.69;4155632;28;20417;-74
2022/10/28 00:40:34;;;;;;;7.60;4.32;;;;;;;11.56;100.00;99191.38;4154814;28;20088;-74
2022/10/28 00:42:35;;;;;;;6.68;3.92;;;;;;;11.46;100.00;99198.31;4154812;28;20056;-74
2022/10/28 00:44:38;;;;;;;10.70;5.20;;;;;;;11.39;100.00;99192.63;4155847;28;20584;-74
2022/10/28 00:46:43;;;;;;;9.27;4.72;;;;;;;11.28;100.00;99183.31;4157223;28;20057;-74
2022/10/28 00:48:48;;;;;;;9.02;5.25;;;;;;;11.24;100.00;99185.19;4156915;28;20041;-74
2022/10/28 00:50:52;;;;;;;13.00;5.53;;;;;;;11.17;100.00;99193.38;4156371;28;20041;-74
2022/10/28 00:52:59;;;;;;;7.85;4.97;;;;;;;11.10;100.00;99185.75;4154029;28;20559;-74
2022/10/28 00:55:01;;;;;;;9.07;4.97;;;;;;;11.09;100.00;99189.69;4154143;28;20029;-74
2022/10/28 00:57:04;;;;;;;9.35;5.78;;;;;;;11.07;100.00;99191.97;4156544;28;20156;-74
2022/10/28 00:59:10;;;;;;;9.27;5.85;;;;;;;11.03;100.00;99193.91;4154180;28;20049;-74
2022/10/28 01:01:10;;;;;;;6.93;5.20;;;;;;;11.02;100.00;99194.25;4155161;28;20072;-74
2022/10/28 01:03:11;;;;;;;7.68;4.82;;;;;;;10.98;100.00;99196.94;4154761;28;20061;-74
2022/10/28 01:05:15;;;;;;;7.88;4.78;;;;;;;10.94;100.00;99196.06;4154909;28;20033;-74
2022/10/28 01:07:16;;;;;;;12.10;4.90;;;;;;;10.94;100.00;99188.56;4156362;28;20052;-74
2022/10/28 01:09:16;;;;;;;6.07;4.80;;;;;;;11.03;100.00;99195.88;4159353;28;20037;-74
2022/10/28 01:11:33;;;;;;;10.07;5.03;;;;;;;11.01;100.00;99196.22;4156918;28;20091;-74
2022/10/28 01:13:49;;;;;;;9.38;5.35;;;;;;;10.95;100.00;99189.38;4162320;28;20045;-74
2022/10/28 01:16:15;;;;;;;8.77;4.90;;;;;;;10.88;100.00;99180.91;4159168;28;20042;-74
2022/10/28 01:18:18;;;;;;;5.60;4.50;;;;;;;10.86;100.00;99184.03;4160342;28;20052;-74
2022/10/28 01:20:24;;;;;;;7.53;4.80;;;;;;;10.88;100.00;99189.22;4157929;28;20052;-74
2022/10/28 01:22:32;;;;;;;11.23;4.70;;;;;;;10.84;100.00;99185.56;4165220;28;20053;-73
2022/10/28 01:24:46;;;;;;;7.72;4.75;;;;;;;10.82;100.00;99176.81;4166067;28;20284;-74
2022/10/28 01:26:55;;;;;;;13.88;5.10;;;;;;;10.78;100.00;99185.06;4159033;28;20464;-74
2022/10/28 01:29:17;;;;;;;9.23;5.20;;;;;;;10.77;100.00;99185.41;4159578;28;20084;-74
2022/10/28 01:31:42;;;;;;;11.38;5.35;;;;;;;10.73;100.00;99174.25;4159077;28;20052;-74
2022/10/28 01:33:53;;;;;;;7.65;4.43;;;;;;;10.77;100.00;99177.13;4159079;28;20322;-74
2022/10/28 01:36:10;;;;;;;8.85;5.30;;;;;;;10.70;100.00;99175.00;4158482;28;20037;-74
2022/10/28 01:38:39;;;;;;;13.77;5.32;;;;;;;10.64;100.00;99170.91;4164990;28;20132;-74
2022/10/28 01:40:48;;;;;;;11.57;5.28;;;;;;;10.61;100.00;99166.09;4157293;28;20034;-74
2022/10/28 01:43:09;;;;;;;7.00;4.07;;;;;;;10.57;100.00;99163.22;4155783;28;20048;-74
2022/10/28 01:45:12;;;;;;;6.53;4.57;;;;;;;10.56;100.00;99166.38;4162285;28;20343;-74
2022/10/28 01:47:28;;;;;;;7.97;4.55;;;;;;;10.51;100.00;99161.94;4157354;28;20088;-74
2022/10/28 01:49:57;;;;;;;10.18;5.35;;;;;;;10.51;100.00;99167.47;4164589;28;20128;-74
2022/10/28 01:52:02;;;;;;;8.68;4.40;;;;;;;10.53;100.00;99173.44;4161714;28;20041;-74
2022/10/28 01:54:06;;;;;;;6.22;4.40;;;;;;;10.56;100.00;99169.94;4162286;28;20044;-74
2022/10/28 01:56:13;;;;;;;9.93;4.70;;;;;;;10.56;100.00;99175.47;4157146;28;20045;-74
2022/10/28 01:58:17;;;;;;;7.18;4.30;;;;;;;10.50;100.00;99163.06;4157606;28;20053;-74
2022/10/28 02:00:18;;;;;;;8.55;4.68;;;;;;;10.49;100.00;99163.44;4156494;28;20029;-74
2022/10/28 02:02:18;;;;;;;8.77;4.43;;;;;;;10.47;100.00;99165.75;4159115;28;20045;-74
2022/10/28 02:04:19;;;;;;;9.35;5.60;;;;;;;10.45;100.00;99159.81;4158299;28;20041;-74
2022/10/28 02:06:22;;;;;;;10.20;4.35;;;;;;;10.41;100.00;99156.94;4161651;28;20041;-75
2022/10/28 02:08:36;;;;;;;5.75;4.03;;;;;;;10.40;100.00;99152.56;4156128;28;20081;-74
2022/10/28 02:10:46;;;;;;;8.43;5.10;;;;;;;10.37;100.00;99159.63;4158254;28;20108;-74
2022/10/28 02:12:52;;;;;;;9.18;4.47;;;;;;;10.33;100.00;99146.88;4159380;28;20069;-74
2022/10/28 02:15:11;;;;;;;6.25;4.60;;;;;;;10.32;100.00;99162.66;4157704;28;20087;-74
2022/10/28 02:17:41;;;;;;;7.35;4.03;;;;;;;10.27;100.00;99156.63;4158160;28;20085;-74
2022/10/28 02:19:53;;;;;;;7.43;4.45;;;;;;;10.24;100.00;99162.84;4157099;28;20099;-74
2022/10/28 02:22:04;;;;;;;7.05;4.63;;;;;;;10.20;100.00;99160.00;4158001;28;20044;-74
2022/10/28 02:24:14;;;;;;;9.27;4.95;;;;;;;10.18;100.00;99159.56;4156505;28;20060;-74
2022/10/28 02:26:34;;;;;;;9.15;4.95;;;;;;;10.18;100.00;99155.97;4163023;28;20065;-74
2022/10/28 02:28:46;;;;;;;7.00;4.25;;;;;;;10.17;100.00;99157.13;4155331;28;20068;-74
2022/10/28 02:31:04;;;;;;;8.03;4.27;;;;;;;10.19;100.00;99152.06;4163109;28;20085;-74
2022/10/28 02:33:10;;;;;;;10.38;4.30;;;;;;;10.20;100.00;99151.69;4156384;28;20069;-74
2022/10/28 02:35:18;;;;;;;8.50;4.65;;;;;;;10.20;100.00;99142.59;4156157;28;20069;-74
2022/10/28 02:37:24;;;;;;;8.20;4.78;;;;;;;10.22;100.00;99141.09;4160212;28;20045;-74
2022/10/28 02:39:33;;;;;;;8.60;4.43;;;;;;;10.25;100.00;99145.09;4155655;28;20045;-74
2022/10/28 02:41:51;;;;;;;8.68;4.68;;;;;;;10.24;100.00;99138.78;4160530;28;20088;-74
2022/10/28 02:43:56;;;;;;;9.20;5.00;;;;;;;10.24;100.00;99152.59;4156730;28;20038;-74
2022/10/28 02:45:59;;;;;;;11.90;5.07;;;;;;;10.29;100.00;99154.28;4155131;28;20205;-74
2022/10/28 02:48:06;;;;;;;8.57;5.00;;;;;;;10.28;100.00;99141.63;4157065;28;20484;-74
2022/10/28 02:50:12;;;;;;;8.82;4.38;;;;;;;10.30;100.00;99148.41;4159706;28;20038;-74
2022/10/28 02:52:14;;;;;;;10.48;5.53;;;;;;;10.29;100.00;99149.56;4171225;28;20025;-74
2022/10/28 02:54:23;;;;;;;8.38;5.35;;;;;;;10.23;100.00;99144.66;4155433;28;20093;-75
2022/10/28 02:56:23;;;;;;;7.70;5.38;;;;;;;10.22;100.00;99145.81;4156696;28;20041;-75
2022/10/28 02:58:24;;;;;;;9.70;5.25;;;;;;;10.18;100.00;99139.38;4155982;28;20068;-73
2022/10/28 03:00:24;;;;;;;5.60;4.10;;;;;;;10.21;100.00;99138.66;4157255;28;20049;-74
2022/10/28 03:02:25;;;;;;;11.40;4.78;;;;;;;10.18;100.00;99139.38;4155675;28;20033;-74
2022/10/28 03:04:25;;;;;;;9.02;4.72;;;;;;;10.17;100.00;99135.81;4156137;28;20389;-74
2022/10/28 03:06:26;;;;;;;6.38;4.32;;;;;;;10.19;100.00;99139.03;4156457;28;20049;-74
2022/10/28 03:08:26;;;;;;;7.78;4.63;;;;;;;10.19;100.00;99139.03;4155540;28;20041;-74
2022/10/28 03:10:26;;;;;;;10.93;5.03;;;;;;;10.16;100.00;99136.16;4158695;28;20095;-74
2022/10/28 03:12:27;;;;;;;8.43;4.38;;;;;;;10.18;100.00;99134.66;4155190;28;20041;-73
2022/10/28 03:14:27;;;;;;;9.32;4.75;;;;;;;10.20;100.00;99131.53;4156449;28;20041;-74
2022/10/28 03:16:27;;;;;;;15.57;5.45;;;;;;;10.20;100.00;99131.53;4155259;28;20046;-74
2022/10/28 03:18:27;;;;;;;7.30;4.40;;;;;;;10.21;100.00;99128.41;4155510;28;20465;-74
2022/10/28 03:20:28;;;;;;;5.57;4.00;;;;;;;10.25;100.00;99122.97;4157063;28;20037;-74
2022/10/28 03:22:28;;;;;;;7.13;4.43;;;;;;;10.28;100.00;99133.34;4156531;28;20119;-74
2022/10/28 03:24:28;;;;;;;10.55;4.70;;;;;;;10.30;100.00;99128.25;4157127;28;20091;-74
2022/10/28 03:26:29;;;;;;;8.20;4.63;;;;;;;10.31;100.00;99125.09;4154326;28;20042;-74
2022/10/28 03:28:29;;;;;;;9.15;4.82;;;;;;;10.32;100.00;99131.44;4160272;28;20489;-74
2022/10/28 03:30:29;;;;;;;7.90;4.50;;;;;;;10.32;100.00;99131.44;4156181;28;20043;-74
2022/10/28 03:32:29;;;;;;;7.65;4.03;;;;;;;10.29;100.00;99121.91;4156814;28;20099;-74
2022/10/28 03:34:30;;;;;;;7.60;5.00;;;;;;;10.28;100.00;99125.03;4155559;28;20050;-74
2022/10/28 03:36:30;;;;;;;8.13;4.57;;;;;;;10.25;100.00;99117.44;4155786;28;20363;-74
2022/10/28 03:38:30;;;;;;;7.45;4.75;;;;;;;10.19;100.00;99119.69;4154941;28;20106;-74
2022/10/28 03:40:31;;;;;;;10.60;4.70;;;;;;;10.17;100.00;99121.97;4155991;28;21109;-74
2022/10/28 03:42:32;;;;;;;8.73;5.10;;;;;;;10.11;100.00;99128.97;4154657;28;20612;-74
2022/10/28 03:44:33;;;;;;;10.07;5.27;;;;;;;10.10;100.00;99130.13;4155492;28;20038;-74
2022/10/28 03:46:33;;;;;;;7.07;4.25;;;;;;;10.06;100.00;99137.53;4154059;28;20366;-74
2022/10/28 03:48:33;;;;;;;6.25;4.53;;;;;;;10.05;100.00;99142.25;4156879;28;20037;-74
2022/10/28 03:50:34;;;;;;;11.00;5.28;;;;;;;10.03;100.00;99160.38;4156826;28;20056;-74
2022/10/28 03:52:34;;;;;;;12.98;5.00;;;;;;;10.03;100.00;99155.63;4153629;28;20464;-74
2022/10/28 03:54:35;;;;;;;6.68;4.32;;;;;;;10.01;100.00;99146.91;4156320;28;20046;-74
2022/10/28 03:56:35;;;;;;;6.28;4.40;;;;;;;10.02;100.00;99162.31;4155042;28;20034;-74
2022/10/28 03:58:35;;;;;;;7.30;5.00;;;;;;;9.99;100.00;99168.56;4155510;28;20042;-74
2022/10/28 04:00:38;;;;;;;9.90;5.90;;;;;;;10.01;100.00;99166.25;4155738;28;20746;-74
2022/10/28 04:02:39;;;;;;;7.72;4.40;;;;;;;9.98;100.00;99157.84;4157213;28;20107;-74
2022/10/28 04:04:39;;;;;;;8.60;4.38;;;;;;;9.94;100.00;99157.78;4156761;28;20045;-74
2022/10/28 04:06:39;;;;;;;10.63;4.57;;;;;;;9.99;100.00;99159.47;4157620;28;20095;-74
2022/10/28 04:08:40;;;;;;;8.05;4.55;;;;;;;9.97;100.00;99154.28;4156741;28;20037;-74
2022/10/28 04:10:40;;;;;;;6.15;4.00;;;;;;;9.98;100.00;99149.56;4155403;28;20041;-74
2022/10/28 04:12:40;;;;;;;9.80;4.90;;;;;;;9.95;100.00;99147.53;4156258;28;20072;-74
2022/10/28 04:14:40;;;;;;;7.82;4.63;;;;;;;9.98;100.00;99161.44;4156742;28;20045;-74
2022/10/28 04:16:41;;;;;;;7.70;4.63;;;;;;;9.95;100.00;99148.31;4154841;28;20045;-74
2022/10/28 04:18:41;;;;;;;7.18;4.30;;;;;;;9.94;100.00;99143.97;4154503;28;20033;-74
2022/10/28 04:20:41;;;;;;;4.78;3.78;;;;;;;9.97;100.00;99159.03;4156090;28;20081;-74
2022/10/28 04:22:42;;;;;;;5.15;3.80;;;;;;;9.94;100.00;99149.50;4154927;28;20037;-74
2022/10/28 04:24:42;;;;;;;9.52;4.40;;;;;;;9.98;100.00;99152.34;4153992;28;20092;-74
2022/10/28 04:26:42;;;;;;;4.85;4.00;;;;;;;10.01;100.00;99157.97;4155108;28;20386;-74
2022/10/28 04:28:43;;;;;;;6.95;4.63;;;;;;;10.03;100.00;99154.84;4154278;28;20305;-74
2022/10/28 04:30:46;;;;;;;10.85;4.85;;;;;;;10.03;100.00;99168.66;4155843;28;20049;-74
2022/10/28 04:32:46;;;;;;;7.22;4.75;;;;;;;10.05;100.00;99177.38;4155702;28;20481;-74
2022/10/28 04:34:46;;;;;;;7.95;4.78;;;;;;;10.06;100.00;99165.16;4154534;28;20319;-74
2022/10/28 04:36:47;;;;;;;10.02;5.43;;;;;;;10.08;100.00;99162.84;4155190;28;20037;-74
2022/10/28 04:38:48;;;;;;;10.80;7.43;;;;;;;10.12;100.00;99167.31;4154807;28;20038;-74
2022/10/28 04:40:49;;;;;;;8.52;5.10;;;;;;;10.16;100.00;99169.34;4156201;28;20053;-74
2022/10/28 04:42:49;;;;;;;8.57;5.22;;;;;;;10.17;100.00;99160.69;4163624;28;20381;-74
2022/10/28 04:44:49;;;;;;;9.35;4.95;;;;;;;10.23;100.00;99152.97;4159988;28;20333;-74
2022/10/28 04:46:50;;;;;;;12.18;6.75;;;;;;;10.26;100.00;99163.28;4159172;28;20033;-74
2022/10/28 04:48:50;;;;;;;7.32;5.57;;;;;;;10.28;100.00;99161.78;4157905;28;20076;-74
2022/10/28 04:50:52;;;;;;;7.57;5.25;;;;;;;10.31;100.00;99161.06;4158466;28;20393;-74
2022/10/28 04:52:52;;;;;;;10.90;4.70;;;;;;;10.29;100.00;99155.09;4156184;28;20041;-74
2022/10/28 04:54:52;;;;;;;8.95;4.75;;;;;;;10.32;100.00;99156.31;4179760;28;20208;-74
2022/10/28 04:56:53;;;;;;;12.15;5.68;;;;;;;10.34;100.00;99152.06;4163867;28;20068;-74
2022/10/28 04:58:54;;;;;;;9.75;4.93;;;;;;;10.36;100.00;99155.25;4157029;28;20128;-74
2022/10/28 05:00:54;;;;;;;7.93;5.22;;;;;;;10.37;100.00;99148.56;4157203;28;20412;-74
2022/10/28 05:02:55;;;;;;;8.80;4.95;;;;;;;10.36;100.00;99151.69;4157906;28;20037;-74
2022/10/28 05:04:59;;;;;;;11.70;4.80;;;;;;;10.33;100.00;99147.66;4158845;28;20087;-74
2022/10/28 05:06:59;;;;;;;13.00;5.13;;;;;;;10.35;100.00;99150.91;4079187;28;20053;-74
2022/10/28 05:08:59;;;;;;;10.60;4.97;;;;;;;10.35;100.00;99156.44;4163678;28;20284;-75
2022/10/28 05:10:59;;;;;;;9.82;5.50;;;;;;;10.36;100.00;99146.16;4158229;28;20415;-74
2022/10/28 05:13:00;;;;;;;10.45;5.20;;;;;;;10.35;100.00;99145.38;4161752;28;20268;-74
2022/10/28 05:15:00;;;;;;;9.63;4.47;;;;;;;10.41;100.00;99146.66;4161458;28;20034;-74
2022/10/28 05:17:00;;;;;;;8.07;4.60;;;;;;;10.41;100.00;99145.88;4157716;28;20385;-74
2022/10/28 05:19:00;;;;;;;10.20;4.82;;;;;;;10.40;100.00;99150.59;4157055;28;20041;-74
2022/10/28 05:21:01;;;;;;;10.88;4.65;;;;;;;10.40;100.00;99147.03;4159283;28;20054;-75
2022/10/28 05:23:01;;;;;;;11.05;5.47;;;;;;;10.36;100.00;99146.97;4160514;28;20482;-74
2022/10/28 05:25:03;;;;;;;12.35;4.60;;;;;;;10.31;100.00;99144.47;4157781;28;20128;-74
2022/10/28 05:27:03;;;;;;;12.35;4.80;;;;;;;10.29;100.00;99134.94;4158329;28;20049;-74
2022/10/28 05:29:03;;;;;;;8.75;4.60;;;;;;;10.25;100.00;99145.91;4158503;28;20168;-74
2022/10/28 05:31:03;;;;;;;7.22;4.40;;;;;;;10.25;100.00;99154.19;4162456;28;20053;-74
2022/10/28 05:33:04;;;;;;;6.97;4.18;;;;;;;10.19;100.00;99152.84;4156405;28;20057;-74
2022/10/28 05:35:05;;;;;;;9.15;5.00;;;;;;;10.15;100.00;99154.72;4159043;28;20046;-74
2022/10/28 05:37:05;;;;;;;9.30;4.60;;;;;;;10.14;100.00;99162.22;4178282;28;20248;-74
2022/10/28 05:39:05;;;;;;;10.15;4.82;;;;;;;10.12;100.00;99159.00;4157379;28;20037;-74
2022/10/28 05:41:05;;;;;;;10.63;4.75;;;;;;;10.09;100.00;99150.63;4156570;28;20393;-74
2022/10/28 05:43:08;;;;;;;9.93;5.28;;;;;;;10.09;100.00;99142.31;4157926;28;20045;-74
2022/10/28 05:45:08;;;;;;;7.05;4.47;;;;;;;10.09;100.00;99132.09;4156753;28;20045;-74
2022/10/28 05:47:09;;;;;;;9.48;6.10;;;;;;;10.11;100.00;99140.03;4156863;28;20541;-74
2022/10/28 05:49:09;;;;;;;9.38;5.07;;;;;;;10.12;100.00;99127.78;4156676;28;20108;-74
2022/10/28 05:51:09;;;;;;;10.82;5.38;;;;;;;10.12;100.00;99136.09;4161567;28;20421;-74
2022/10/28 05:53:10;;;;;;;9.88;5.20;;;;;;;10.16;100.00;99136.97;4157994;28;20108;-74
2022/10/28 05:55:10;;;;;;;14.02;5.22;;;;;;;10.23;100.00;99115.03;4160740;28;20037;-74
2022/10/28 05:57:10;;;;;;;8.73;5.40;;;;;;;10.30;100.00;99125.47;4157733;28;20767;-74
2022/10/28 05:59:10;;;;;;;17.67;5.22;;;;;;;10.34;100.00;99118.88;4156116;28;20201;-73
2022/10/28 06:01:11;;;;;;;7.88;5.20;;;;;;;10.40;100.00;99113.84;4156302;28;20390;-74
2022/10/28 06:03:11;;;;;;;7.60;5.07;;;;;;;10.45;100.00;99118.31;4157046;28;20077;-74
2022/10/28 06:05:12;;;;;;;7.25;4.38;;;;;;;10.48;100.00;99125.88;4155949;28;20049;-74
2022/10/28 06:07:12;;;;;;;10.48;4.80;;;;;;;10.49;100.00;99121.94;4156556;28;20040;-74
2022/10/28 06:09:12;;;;;;;9.82;5.30;;;;;;;10.48;100.00;99110.06;4157088;28;20401;-74
2022/10/28 06:11:13;;;;;;;11.52;5.32;;;;;;;10.51;100.00;99123.19;4155960;28;20446;-74
2022/10/28 06:13:13;;;;;;;13.68;5.18;;;;;;;10.50;100.00;99124.34;4155651;28;20057;-74
2022/10/28 06:15:13;;;;;;;10.10;5.90;;;;;;;10.54;100.00;99125.22;4159078;28;20041;-74
2022/10/28 06:17:13;;;;;;;6.82;4.68;;;;;;;10.51;100.00;99119.59;4157701;28;20408;-74
2022/10/28 06:19:14;;;;;;;7.35;4.90;;;;;;;10.53;100.00;99129.16;4157841;28;20042;-74
2022/10/28 06:21:14;;;;;;;8.65;4.97;;;;;;;10.55;100.00;99118.53;4159734;28;20399;-74
2022/10/28 06:23:14;;;;;;;9.15;5.38;;;;;;;10.59;100.00;99122.19;4156128;28;20731;-74
2022/10/28 06:25:15;;;;;;;9.02;4.72;;;;;;;10.64;100.00;99119.13;4155673;28;20050;-73
2022/10/28 06:27:15;;;;;;;12.70;5.30;;;;;;;10.75;100.00;99115.75;4158661;28;20061;-73
2022/10/28 06:29:16;;;;;;;10.00;4.93;;;;;;;10.84;100.00;99119.94;4155379;28;20053;-73
2022/10/28 06:31:16;;;;;;;10.70;5.10;;;;;;;10.85;100.00;99117.97;4156273;28;20509;-74
2022/10/28 06:33:17;;;;;;;8.05;5.30;;;;;;;10.90;100.00;99110.16;4155694;28;20137;-73
2022/10/28 06:35:17;;;;;;;9.80;5.05;;;;;;;10.96;100.00;99121.75;4159479;28;20398;-74
2022/10/28 06:37:18;;;;;;;9.18;5.38;;;;;;;10.95;100.00;99111.84;4160580;28;20542;-74
2022/10/28 06:39:18;;;;;;;9.60;5.53;;;;;;;10.98;100.00;99116.66;4158986;28;20049;-74
2022/10/28 06:41:18;;;;;;;8.52;4.60;;;;;;;10.99;100.00;99112.69;4156414;28;20041;-74
2022/10/28 06:43:18;;;;;;;8.25;4.85;;;;;;;11.01;100.00;99112.38;4155794;28;20053;-73
2022/10/28 06:45:19;;;;;;;9.77;4.68;;;;;;;11.04;100.00;99111.63;4161208;28;20045;-73
2022/10/28 06:47:20;;;;;;;10.57;5.03;;;;;;;11.06;100.00;99112.84;4158898;28;20045;-74
2022/10/28 06:49:20;;;;;;;9.27;5.95;;;;;;;11.07;100.00;99097.84;4156556;28;20041;-73
2022/10/28 06:51:21;;;;;;;12.52;4.78;;;;;;;11.14;100.00;99086.09;4155539;28;20037;-74
2022/10/28 06:53:21;;;;;;;6.90;3.95;;;;;;;11.38;100.00;99082.19;4155167;28;20088;-73
2022/10/28 06:55:23;;;;;;;9.25;4.13;;;;;;;11.61;100.00;99085.75;4155810;28;20697;-74
2022/10/28 06:57:23;;;;;;;12.50;4.05;;;;;;;11.82;100.00;99068.69;4159661;28;20269;-74
2022/10/28 06:59:23;;;;;;;8.80;3.72;;;;;;;11.96;100.00;99077.25;4159979;28;20392;-73
2022/10/28 07:01:24;;;;;;;10.10;3.70;;;;;;;12.26;100.00;99066.22;4155962;28;20041;-74
2022/10/28 07:03:24;;;;;;;8.75;3.80;;;;;;;12.49;100.00;99062.53;4155629;28;20046;-73
2022/10/28 07:05:26;;;;;;;15.95;3.28;;;;;;;12.71;100.00;99055.28;4156087;28;20405;-74
2022/10/28 07:07:26;;;;;;;7.97;3.10;;;;;;;12.90;100.00;99066.22;4155042;28;20124;-73
2022/10/28 07:09:27;;;;;;;5.72;2.70;;;;;;;13.13;100.00;99043.84;4162794;28;20073;-73
2022/10/28 07:11:27;;;;;;;5.57;2.70;;;;;;;13.43;97.63;99047.34;4156263;28;20044;-74
2022/10/28 07:13:28;;;;;;;9.88;2.40;;;;;;;13.65;96.89;99042.78;4154650;28;20048;-74
2022/10/28 07:15:28;;;;;;;6.78;3.08;;;;;;;13.74;95.62;99021.00;4156583;28;20051;-73
2022/10/28 07:17:28;;;;;;;8.88;2.40;;;;;;;13.84;95.86;99030.63;4155164;28;20044;-74
2022/10/28 07:19:29;;;;;;;8.23;2.58;;;;;;;14.09;93.67;99047.47;4155793;28;20123;-73
2022/10/28 07:21:29;;;;;;;7.22;2.67;;;;;;;14.53;91.71;99052.91;4155828;28;20037;-74
2022/10/28 07:23:31;;;;;;;8.77;2.53;;;;;;;14.87;90.06;99050.66;4154943;28;20139;-74
2022/10/28 07:25:32;;;;;;;5.90;3.65;;;;;;;14.94;89.65;99061.03;4154059;28;20128;-73
2022/10/28 07:27:32;;;;;;;6.65;2.97;;;;;;;14.78;90.96;99055.00;4158157;28;20064;-74
2022/10/28 07:29:32;;;;;;;5.80;2.60;;;;;;;14.73;91.14;99060.94;4157541;28;20041;-74
2022/10/28 07:31:32;;;;;;;11.10;3.15;;;;;;;14.69;91.38;99062.94;4158463;28;20383;-74
2022/10/28 07:33:33;;;;;;;7.00;2.88;;;;;;;14.61;92.78;99059.31;4154886;28;20393;-73
2022/10/28 07:35:33;;;;;;;9.13;2.70;;;;;;;14.64;90.58;99061.31;4155279;28;20037;-74
2022/10/28 07:37:33;;;;;;;8.10;2.65;;;;;;;14.55;92.06;99060.88;4155623;28;20692;-74
2022/10/28 07:39:33;;;;;;;4.50;2.88;;;;;;;14.51;92.68;99069.22;4158764;28;20054;-73
2022/10/28 07:41:36;;;;;;;8.18;4.00;;;;;;;14.49;92.33;99059.66;4154190;28;20470;-74
2022/10/28 07:43:37;;;;;;;10.98;3.47;;;;;;;14.47;92.84;99054.47;4155105;28;20193;-74
2022/10/28 07:45:37;;;;;;;10.25;3.35;;;;;;;14.47;92.86;99070.38;4154285;28;20038;-74
2022/10/28 07:47:38;;;;;;;8.73;3.00;;;;;;;14.44;93.44;99071.94;4161335;28;20063;-74
2022/10/28 07:49:38;;;;;;;4.75;2.28;;;;;;;14.49;92.77;99063.25;4154496;28;20864;-74
2022/10/28 07:51:39;;;;;;;7.43;3.40;;;;;;;14.54;93.16;99070.41;4156893;28;20107;-74
2022/10/28 07:53:40;;;;;;;7.25;3.40;;;;;;;14.48;93.19;99074.75;4154134;28;20539;-74
2022/10/28 07:55:40;;;;;;;11.07;3.85;;;;;;;14.43;94.17;99059.19;4154259;28;20444;-74
2022/10/28 07:57:40;;;;;;;8.35;3.00;;;;;;;14.44;93.16;99062.78;4155337;28;20053;-74
2022/10/28 07:59:41;;;;;;;4.47;2.63;;;;;;;14.50;92.20;99052.91;4156231;28;20373;-74
2022/10/28 08:01:41;;;;;;;4.75;2.30;;;;;;;14.54;91.54;99057.28;4155877;28;20115;-74
2022/10/28 08:03:42;;;;;;;5.97;2.20;;;;;;;14.56;91.61;99056.88;4155140;28;20041;-74
2022/10/28 08:05:42;;;;;;;10.27;3.00;;;;;;;14.64;92.18;99054.94;4154497;28;20465;-74
2022/10/28 08:07:43;;;;;;;6.68;2.97;;;;;;;14.69;92.07;99060.94;4154299;28;20041;-74
2022/10/28 08:09:44;;;;;;;6.63;2.42;;;;;;;14.68;92.68;99058.56;4154154;28;20037;-74
2022/10/28 08:11:44;;;;;;;5.88;2.65;;;;;;;14.72;92.78;99053.78;4157428;28;20041;-74
2022/10/28 08:13:45;;;;;;;7.75;2.45;;;;;;;14.76;92.83;99057.38;4159003;28;20494;-74
2022/10/28 08:15:53;;;;;;;8.88;2.42;;;;;;;14.85;92.49;99060.59;4158776;28;20409;-74
2022/10/28 08:17:54;;;;;;;5.72;2.28;;;;;;;14.96;92.44;99060.63;4158231;28;20120;-74
2022/10/28 08:19:54;;;;;;;8.45;2.80;;;;;;;15.03;91.03;99053.09;4158106;28;20044;-73
2022/10/28 08:21:55;;;;;;;4.82;2.47;;;;;;;15.13;90.73;99063.47;4155029;28;20152;-74
2022/10/28 08:23:55;;;;;;;7.07;2.70;;;;;;;15.23;91.03;99056.34;4155106;28;20037;-73
2022/10/28 08:25:55;;;;;;;10.20;2.88;;;;;;;15.31;90.83;99055.16;4155961;28;20328;-73
2022/10/28 08:27:56;;;;;;;5.60;2.50;;;;;;;15.37;89.63;99047.97;4155465;28;20036;-74
2022/10/28 08:29:56;;;;;;;5.22;2.28;;;;;;;15.48;89.44;99058.38;4156682;28;20209;-74
2022/10/28 08:31:57;;;;;;;5.70;2.42;;;;;;;15.51;89.44;99057.56;4157775;28;20448;-74
2022/10/28 08:33:57;;;;;;;6.55;3.08;;;;;;;15.61;90.31;99065.97;4156175;28;20481;-74
2022/10/28 08:35:57;;;;;;;8.23;2.60;;;;;;;15.75;87.30;99056.03;4158106;28;20096;-74
2022/10/28 08:37:58;;;;;;;7.75;2.80;;;;;;;15.89;86.28;99058.81;4156452;28;20175;-74
2022/10/28 08:39:58;;;;;;;7.22;2.20;;;;;;;15.98;83.64;99062.00;4155102;28;20045;-73
2022/10/28 08:42:26;;;;;;;8.10;2.88;;;;;;;16.13;83.42;99060.75;4159238;28;20050;-74
2022/10/28 08:44:42;;;;;;;12.40;2.70;;;;;;;16.29;82.34;99055.53;4154726;28;20041;-74
2022/10/28 08:47:07;;;;;;;4.55;1.70;;;;;;;16.46;81.34;99062.28;4157933;28;20128;-74
2022/10/28 08:49:13;;;;;;;5.75;1.80;;;;;;;16.58;80.09;99063.84;4157238;28;20045;-74
2022/10/28 08:51:19;;;;;;;5.93;1.67;;;;;;;16.62;79.64;99047.06;4157272;28;20047;-74
2022/10/28 08:53:29;;;;;;;8.07;2.00;;;;;;;16.71;79.72;99056.63;4156875;28;20493;-74
2022/10/28 08:55:40;;;;;;;4.15;1.30;;;;;;;16.78;78.83;99055.81;4157831;28;20308;-74
2022/10/28 08:58:06;;;;;;;6.45;2.30;;;;;;;16.90;79.78;99060.97;4159841;28;20380;-74
2022/10/28 09:00:17;;;;;;;8.05;1.83;;;;;;;16.97;78.93;99058.16;4155342;28;20053;-74
2022/10/28 09:02:23;;;;;;;5.75;1.40;;;;;;;17.00;78.71;99057.31;4155622;28;20414;-74
2022/10/28 09:04:38;;;;;;;6.28;1.77;;;;;;;17.01;80.02;99060.91;4152981;28;20129;-74
2022/10/28 09:06:38;;;;;;;7.50;1.60;;;;;;;17.07;79.58;99062.88;4159934;28;20050;-74
2022/10/28 09:08:42;;;;;;;9.77;1.85;;;;;;;17.05;81.01;99056.91;4154613;28;20029;-74
2022/10/28 09:11:08;;;;;;;9.43;2.05;;;;;;;17.17;79.93;99055.63;4154337;28;20106;-74
2022/10/28 09:13:24;;;;;;;6.47;2.10;;;;;;;17.21;79.91;99062.00;4138186;28;20419;-74
2022/10/28 09:15:37;;;;;;;7.68;1.75;;;;;;;17.22;79.29;99060.81;4154939;28;20129;-73
2022/10/28 09:18:00;;;;;;;5.43;2.00;;;;;;;17.17;78.99;99058.44;4154811;28;20037;-74
2022/10/28 09:20:31;;;;;;;7.43;1.75;;;;;;;17.16;76.01;99056.84;4154530;28;20378;-74
2022/10/28 09:22:55;;;;;;;4.63;1.85;;;;;;;17.28;74.71;99061.94;4142516;28;20135;-73
2022/10/28 09:25:01;;;;;;;10.70;3.75;;;;;;;17.39;74.40;99065.47;4159242;28;20056;-74
2022/10/28 09:27:18;;;;;;;11.23;5.80;;;;;;;17.55;73.72;99053.00;4155727;28;20061;-74
2022/10/28 09:29:18;;;;;;;9.20;2.88;;;;;;;17.64;74.90;99054.13;4154850;28;20156;-74
2022/10/28 09:31:31;;;;;;;10.07;2.07;;;;;;;17.75;72.09;99056.84;4157005;28;20100;-74
2022/10/28 09:33:34;;;;;;;9.38;3.20;;;;;;;17.90;72.57;99055.53;4159610;28;21193;-74
2022/10/28 09:35:42;;;;;;;20.23;7.57;;;;;;;17.95;73.27;99052.25;4159064;28;20030;-74